createdAt,value
2023-03-28T03:28:41.445Z,1.35
2023-03-28T04:03:36.563Z,4.31
2023-03-28T05:07:56.986Z,2.69
2023-03-28T05:24:04.630Z,3.26
2023-03-28T08:14:24.251Z,5.45
2023-03-28T08:22:23.640Z,4.60
2023-03-28T09:25:54.772Z,1.93
2023-03-28T09:48:08.684Z,2.49
2023-03-28T09:52:07.358Z,3.79
2023-03-28T10:54:13.803Z,2.97
2023-03-28T11:14:53.144Z,2.33
2023-03-28T11:40:38.327Z,3.08
2023-03-28T13:03:41.675Z,2.49
2023-03-28T14:49:57.736Z,1.93
2023-03-28T14:50:58.010Z,2.29
2023-03-28T14:51:57.737Z,1.99
2023-03-28T14:52:57.750Z,2.52
2023-03-28T14:53:57.736Z,1.85
2023-03-28T14:54:57.726Z,1.88
2023-03-28T14:56:00.158Z,2.36
2023-03-28T14:56:57.767Z,2.14
2023-03-28T14:57:57.658Z,2.33
2023-03-28T14:58:57.896Z,1.99
2023-03-28T14:59:57.696Z,2.08
2023-03-28T15:00:57.856Z,2.05
2023-03-28T15:01:57.728Z,1.97
2023-03-28T15:02:57.877Z,2.32
2023-03-28T15:03:57.795Z,2.45
2023-03-28T15:04:57.743Z,2.69
2023-03-28T15:05:57.652Z,2.98
2023-03-28T15:06:57.670Z,2.27
2023-03-28T15:07:57.619Z,2.33
2023-03-28T15:08:57.591Z,2.57
2023-03-28T15:09:57.633Z,2.35
2023-03-28T15:10:57.735Z,2.95
2023-03-28T15:11:57.594Z,3.94
2023-03-28T15:12:57.583Z,8.17
2023-03-28T15:13:57.580Z,2.85
2023-03-28T15:15:04.685Z,2.13
2023-03-28T15:15:57.597Z,3.25
2023-03-28T15:16:57.563Z,2.81
2023-03-28T15:17:57.555Z,3.77
2023-03-28T15:18:57.582Z,3.39
2023-03-28T15:19:57.524Z,3.00
2023-03-28T15:20:57.592Z,2.80
2023-03-28T15:21:57.547Z,2.78
2023-03-28T15:22:57.513Z,3.27
2023-03-28T15:23:57.513Z,3.43
2023-03-28T15:24:57.554Z,2.95
2023-03-28T15:25:57.532Z,2.69
2023-03-28T15:26:57.514Z,2.72
2023-03-28T15:27:57.482Z,2.37
2023-03-28T15:28:57.556Z,3.42
2023-03-28T15:29:58.390Z,3.32
2023-03-28T15:30:57.522Z,3.32
2023-03-28T15:31:57.526Z,3.78
2023-03-28T15:33:08.113Z,3.23
2023-03-28T15:33:57.436Z,2.99
2023-03-28T15:34:57.437Z,3.26
2023-03-28T15:35:57.443Z,3.76
2023-03-28T15:36:57.395Z,2.91
2023-03-28T15:37:57.423Z,2.80
2023-03-28T15:38:57.500Z,2.98
2023-03-28T15:39:57.417Z,2.59
2023-03-28T15:40:57.465Z,3.07
2023-03-28T15:41:57.393Z,2.63
2023-03-28T15:42:57.438Z,2.63
2023-03-28T15:43:57.391Z,3.42
2023-03-28T15:44:57.392Z,2.60
2023-03-28T15:45:57.414Z,3.12
2023-03-28T15:46:57.363Z,3.01
2023-03-28T15:47:57.517Z,3.28
2023-03-28T15:48:57.384Z,3.57
2023-03-28T15:49:58.347Z,3.33
2023-03-28T15:50:57.569Z,3.34
2023-03-28T15:51:57.521Z,3.21
2023-03-28T15:52:57.542Z,2.94
2023-03-28T15:53:57.610Z,3.17
2023-03-28T15:54:57.638Z,3.47
2023-03-28T15:55:57.689Z,3.29
2023-03-28T15:56:57.731Z,3.16
2023-03-28T15:57:57.766Z,3.02
2023-03-28T15:58:57.749Z,2.59
2023-03-28T15:59:57.762Z,2.92
2023-03-28T16:00:57.811Z,3.09
2023-03-28T16:01:57.863Z,3.05
2023-03-28T16:02:57.944Z,3.35
2023-03-28T16:03:57.809Z,3.39
2023-03-28T16:04:57.820Z,3.59
2023-03-28T16:06:07.695Z,3.73
2023-03-28T16:06:58.879Z,4.60
2023-03-28T16:07:57.870Z,3.46
2023-03-28T16:08:57.871Z,4.00
2023-03-28T16:09:57.829Z,3.55
2023-03-28T16:10:57.853Z,3.97
2023-03-28T16:11:57.798Z,3.33
2023-03-28T16:12:57.810Z,3.27
2023-03-28T16:13:57.869Z,3.35
2023-03-28T16:14:57.842Z,3.76
2023-03-28T16:15:57.934Z,3.29
2023-03-28T16:16:57.930Z,3.58
2023-03-28T16:17:57.830Z,3.13
2023-03-28T16:18:57.796Z,3.27
2023-03-28T16:19:57.858Z,3.16
2023-03-28T16:20:57.818Z,3.38
2023-03-28T16:22:00.532Z,3.46
2023-03-28T16:22:57.908Z,3.20
2023-03-28T16:23:57.920Z,3.28
2023-03-28T16:24:57.893Z,3.57
2023-03-28T16:25:57.966Z,3.29
2023-03-28T16:26:57.862Z,3.28
2023-03-28T16:27:57.901Z,3.18
2023-03-28T16:28:57.870Z,3.24
2023-03-28T16:29:57.872Z,3.51
2023-03-28T16:30:57.853Z,3.02
2023-03-28T16:31:57.911Z,2.81
2023-03-28T16:32:57.861Z,2.92
2023-03-28T16:33:57.806Z,3.27
2023-03-28T16:34:57.828Z,2.80
2023-03-28T16:35:57.832Z,2.71
2023-03-28T16:36:57.808Z,3.29
2023-03-28T16:37:57.794Z,3.68
2023-03-28T16:38:57.765Z,3.33
2023-03-28T16:39:57.856Z,2.43
2023-03-28T16:40:57.763Z,2.82
2023-03-28T16:41:57.774Z,2.71
2023-03-28T16:42:57.779Z,3.45
2023-03-28T16:43:57.730Z,3.29
2023-03-28T16:44:57.800Z,3.19
2023-03-28T16:45:57.809Z,3.15
2023-03-28T16:46:57.757Z,3.03
2023-03-28T16:47:57.764Z,2.92
2023-03-28T16:48:57.733Z,3.03
2023-03-28T16:49:57.757Z,2.69
2023-03-28T16:50:57.713Z,2.86
2023-03-28T16:51:57.896Z,2.89
2023-03-28T16:52:57.736Z,3.11
2023-03-28T16:53:57.667Z,3.26
2023-03-28T16:54:57.733Z,3.26
2023-03-28T16:55:57.734Z,3.20
2023-03-28T16:56:57.825Z,2.99
2023-03-28T16:57:57.735Z,3.02
2023-03-28T16:58:57.666Z,3.34
2023-03-28T16:59:57.681Z,3.12
2023-03-28T17:00:57.762Z,2.79
2023-03-28T17:01:57.772Z,4.22
2023-03-28T17:02:57.714Z,3.48
2023-03-28T17:03:57.641Z,4.30
2023-03-28T17:04:57.640Z,4.64
2023-03-28T17:05:57.785Z,3.83
2023-03-28T17:06:57.640Z,3.87
2023-03-28T17:07:57.568Z,3.52
2023-03-28T17:08:57.646Z,3.10
2023-03-28T17:09:57.630Z,3.55
2023-03-28T17:10:57.598Z,3.92
2023-03-28T17:11:57.651Z,3.34
2023-03-28T17:12:57.563Z,3.44
2023-03-28T17:13:57.581Z,3.58
2023-03-28T17:14:57.568Z,3.72
2023-03-28T17:15:57.637Z,3.97
2023-03-28T17:16:57.666Z,3.63
2023-03-28T17:17:57.580Z,3.61
2023-03-28T17:18:57.538Z,3.48
2023-03-28T17:19:57.549Z,3.51
2023-03-28T17:20:58.696Z,3.78
2023-03-28T17:21:57.577Z,3.23
2023-03-28T17:22:57.565Z,3.33
2023-03-28T17:23:57.533Z,3.94
2023-03-28T17:24:57.594Z,4.05
2023-03-28T17:25:57.652Z,4.34
2023-03-28T17:26:57.688Z,4.74
2023-03-28T17:27:57.750Z,4.77
2023-03-28T17:28:57.795Z,4.72
2023-03-28T17:29:57.773Z,4.49
2023-03-28T17:30:57.825Z,4.29
2023-03-28T17:31:57.847Z,4.21
2023-03-28T17:32:57.892Z,3.64
2023-03-28T17:33:57.904Z,3.55
2023-03-28T17:34:57.926Z,3.80
2023-03-28T17:35:57.959Z,4.35
2023-03-28T17:36:57.969Z,3.69
2023-03-28T17:37:57.910Z,4.26
2023-03-28T17:38:57.990Z,3.45
2023-03-28T17:39:58.054Z,3.23
2023-03-28T17:40:58.172Z,4.41
2023-03-28T17:41:58.192Z,4.09
2023-03-28T17:42:58.179Z,4.34
2023-03-28T17:43:58.181Z,4.98
2023-03-28T17:44:58.173Z,4.64
2023-03-28T17:45:58.265Z,5.01
2023-03-28T17:46:58.251Z,11.94
2023-03-28T17:47:58.234Z,9.61
2023-03-28T17:48:58.221Z,8.39
2023-03-28T17:49:58.227Z,7.47
2023-03-28T17:50:58.243Z,5.25
2023-03-28T17:51:58.280Z,5.18
2023-03-28T17:52:58.255Z,5.03
2023-03-28T17:53:58.287Z,4.23
2023-03-28T17:54:58.353Z,6.21
2023-03-28T17:55:58.621Z,5.26
2023-03-28T17:56:58.536Z,5.48
2023-03-28T17:57:58.566Z,5.70
2023-03-28T17:58:58.609Z,5.55
2023-03-28T17:59:58.673Z,5.39
2023-03-28T18:00:58.709Z,5.78
2023-03-28T18:01:58.828Z,5.54
2023-03-28T18:02:58.889Z,4.31
2023-03-28T18:03:58.855Z,3.83
2023-03-28T18:04:58.820Z,4.33
2023-03-28T18:05:59.010Z,4.41
2023-03-28T18:06:58.835Z,3.94
2023-03-28T18:07:58.892Z,4.17
2023-03-28T18:08:58.987Z,4.71
2023-03-28T18:09:59.064Z,5.58
2023-03-28T18:10:59.090Z,4.80
2023-03-28T18:11:59.143Z,5.42
2023-03-28T18:12:59.197Z,5.75
2023-03-28T18:13:59.231Z,4.80
2023-03-28T18:15:00.919Z,4.62
2023-03-28T18:15:59.574Z,5.28
2023-03-28T18:16:59.311Z,5.79
2023-03-28T18:17:59.290Z,5.35
2023-03-28T18:18:59.323Z,4.89
2023-03-28T18:19:59.357Z,4.55
2023-03-28T18:20:59.359Z,4.70
2023-03-28T18:21:59.461Z,4.50
2023-03-28T18:22:59.393Z,4.81
2023-03-28T18:23:59.432Z,4.28
2023-03-28T18:24:59.420Z,4.43
2023-03-28T18:25:59.797Z,4.56
2023-03-28T18:26:59.515Z,5.00
2023-03-28T18:27:59.611Z,4.61
2023-03-28T18:28:59.576Z,4.89
2023-03-28T18:29:59.628Z,5.41
2023-03-28T18:30:59.782Z,4.66
2023-03-28T18:31:59.889Z,4.76
2023-03-28T18:32:59.782Z,4.23
2023-03-28T18:33:59.884Z,4.59
2023-03-28T18:34:59.794Z,4.22
2023-03-28T18:36:00.034Z,4.58
2023-03-28T18:36:59.887Z,4.53
2023-03-28T18:37:59.960Z,4.49
2023-03-28T18:38:59.974Z,4.44
2023-03-28T18:40:00.065Z,4.77
2023-03-28T18:41:00.037Z,4.84
2023-03-28T18:42:00.134Z,4.47
2023-03-28T18:43:00.069Z,4.92
2023-03-28T18:44:00.114Z,5.07
2023-03-28T18:45:00.173Z,5.88
2023-03-28T18:46:00.340Z,5.30
2023-03-28T18:47:00.154Z,4.74
2023-03-28T18:48:00.209Z,5.37
2023-03-28T18:49:00.187Z,4.48
2023-03-28T18:50:00.235Z,5.42
2023-03-28T18:51:00.268Z,5.13
2023-03-28T18:52:00.228Z,5.56
2023-03-28T18:53:00.389Z,4.92
2023-03-28T18:54:00.405Z,5.55
2023-03-28T18:55:00.451Z,5.65
2023-03-28T18:56:00.803Z,6.37
2023-03-28T18:57:00.537Z,5.95
2023-03-28T18:58:00.527Z,5.71
2023-03-28T18:59:00.532Z,6.30
2023-03-28T19:00:00.514Z,5.87
2023-03-28T19:01:00.501Z,6.10
2023-03-28T19:02:00.494Z,5.37
2023-03-28T19:03:00.593Z,5.73
2023-03-28T19:04:00.705Z,5.58
2023-03-28T19:05:00.464Z,5.68
2023-03-28T19:06:00.577Z,5.17
2023-03-28T19:07:00.423Z,6.01
2023-03-28T19:08:00.411Z,5.28
2023-03-28T19:09:00.427Z,5.29
2023-03-28T19:10:00.426Z,4.68
2023-03-28T19:11:00.434Z,5.25
2023-03-28T19:12:00.547Z,5.84
2023-03-28T19:13:00.580Z,5.80
2023-03-28T19:14:00.647Z,5.58
2023-03-28T19:15:00.665Z,5.24
2023-03-28T19:16:00.973Z,6.05
2023-03-28T19:17:00.905Z,5.26
2023-03-28T19:18:02.257Z,4.64
2023-03-28T19:19:00.932Z,5.82
2023-03-28T19:20:00.963Z,5.50
2023-03-28T19:21:01.893Z,5.55
2023-03-28T19:22:00.983Z,4.98
2023-03-28T19:23:00.950Z,5.75
2023-03-28T19:24:00.964Z,5.62
2023-03-28T19:25:00.989Z,5.68
2023-03-28T19:26:01.169Z,5.78
2023-03-28T19:27:03.197Z,5.85
2023-03-28T19:28:01.048Z,5.47
2023-03-28T19:29:01.066Z,5.97
2023-03-28T19:30:01.029Z,5.17
2023-03-28T19:31:01.108Z,4.82
2023-03-28T19:32:01.071Z,5.01
2023-03-28T19:33:01.056Z,4.61
2023-03-28T19:34:00.986Z,4.51
2023-03-28T19:35:00.971Z,4.08
2023-03-28T19:36:01.256Z,4.11
2023-03-28T19:37:01.007Z,4.53
2023-03-28T19:38:00.942Z,4.68
2023-03-28T19:39:00.958Z,4.30
2023-03-28T19:40:00.971Z,3.99
2023-03-28T19:41:00.985Z,4.63
2023-03-28T19:42:00.955Z,4.63
2023-03-28T19:43:00.969Z,3.87
2023-03-28T19:44:00.938Z,3.58
2023-03-28T19:45:00.906Z,3.53
2023-03-28T19:46:01.317Z,3.33
2023-03-28T19:47:00.957Z,3.22
2023-03-28T19:48:00.961Z,3.31
2023-03-28T19:49:00.952Z,3.56
2023-03-28T19:50:00.951Z,3.68
2023-03-28T19:51:00.940Z,4.27
2023-03-28T19:52:00.969Z,4.01
2023-03-28T19:53:00.971Z,3.81
2023-03-28T19:54:01.043Z,3.22
2023-03-28T19:55:01.062Z,3.68
2023-03-28T19:56:01.258Z,3.32
2023-03-28T19:57:01.209Z,4.11
2023-03-28T19:58:01.163Z,3.24
2023-03-28T19:59:01.215Z,3.93
2023-03-28T20:00:01.266Z,3.36
2023-03-28T20:01:01.537Z,3.45
2023-03-28T20:02:01.508Z,3.86
2023-03-28T20:03:02.940Z,3.90
2023-03-28T20:04:01.456Z,4.12
2023-03-28T20:05:01.457Z,4.99
2023-03-28T20:06:01.608Z,4.59
2023-03-28T20:07:01.517Z,4.45
2023-03-28T20:08:01.536Z,5.55
2023-03-28T20:09:01.540Z,3.85
2023-03-28T20:10:01.535Z,4.36
2023-03-28T20:11:01.843Z,4.54
2023-03-28T20:12:01.586Z,5.38
2023-03-28T20:13:01.573Z,5.14
2023-03-28T20:14:01.610Z,4.86
2023-03-28T20:15:01.585Z,4.98
2023-03-28T20:16:01.668Z,4.72
2023-03-28T20:17:01.683Z,4.27
2023-03-28T20:18:01.732Z,4.59
2023-03-28T20:19:01.751Z,4.52
2023-03-28T20:20:01.712Z,4.10
2023-03-28T20:21:01.910Z,3.52
2023-03-28T20:22:01.798Z,3.42
2023-03-28T20:23:01.734Z,4.03
2023-03-28T20:24:01.772Z,3.60
2023-03-28T20:25:01.811Z,3.90
2023-03-28T20:26:01.847Z,3.89
2023-03-28T20:27:01.935Z,4.47
2023-03-28T20:28:01.936Z,4.66
2023-03-28T20:29:01.983Z,4.27
2023-03-28T20:30:02.049Z,4.71
2023-03-28T20:31:02.417Z,4.37
2023-03-28T20:32:02.108Z,4.47
2023-03-28T20:33:02.233Z,4.84
2023-03-28T20:34:02.278Z,4.69
2023-03-28T20:35:02.258Z,3.89
2023-03-28T20:36:02.385Z,4.15
2023-03-28T20:37:02.357Z,4.13
2023-03-28T20:38:02.447Z,4.01
2023-03-28T20:39:02.459Z,4.31
2023-03-28T20:40:02.544Z,4.03
2023-03-28T20:41:02.787Z,4.62
2023-03-28T20:42:02.616Z,4.63
2023-03-28T20:43:02.641Z,4.52
2023-03-28T20:44:02.717Z,4.31
2023-03-28T20:45:02.779Z,4.42
2023-03-28T20:46:02.831Z,4.16
2023-03-28T20:47:02.948Z,4.23
2023-03-28T20:48:02.988Z,4.07
2023-03-28T20:49:02.963Z,3.60
2023-03-28T20:50:03.009Z,3.82
2023-03-28T20:51:03.371Z,3.99
2023-03-28T20:52:03.164Z,4.19
2023-03-28T20:53:03.188Z,4.33
2023-03-28T20:54:03.235Z,4.27
2023-03-28T20:55:03.278Z,3.83
2023-03-28T20:56:03.371Z,4.10
2023-03-28T20:57:03.549Z,4.26
2023-03-28T20:58:03.469Z,5.12
2023-03-28T20:59:03.529Z,4.70
2023-03-28T21:00:03.589Z,5.34
2023-03-28T21:01:03.961Z,5.10
2023-03-28T21:02:03.729Z,3.54
2023-03-28T21:03:03.931Z,3.70
2023-03-28T21:04:03.836Z,4.25
2023-03-28T21:05:03.933Z,4.07
2023-03-28T21:06:03.926Z,4.14
2023-03-28T21:07:04.043Z,4.14
2023-03-28T21:08:04.046Z,3.98
2023-03-28T21:09:04.134Z,3.34
2023-03-28T21:10:04.165Z,3.81
2023-03-28T21:11:04.294Z,3.88
2023-03-28T21:12:04.257Z,3.62
2023-03-28T21:13:04.263Z,4.23
2023-03-28T21:14:04.371Z,3.65
2023-03-28T21:15:04.378Z,3.33
2023-03-28T21:16:04.493Z,4.29
2023-03-28T21:17:04.580Z,4.56
2023-03-28T21:18:04.636Z,4.10
2023-03-28T21:19:04.710Z,4.35
2023-03-28T21:20:05.609Z,4.42
2023-03-28T21:21:04.753Z,4.02
2023-03-28T21:22:04.861Z,4.71
2023-03-28T21:23:04.916Z,3.82
2023-03-28T21:24:05.015Z,3.93
2023-03-28T21:25:04.993Z,3.72
2023-03-28T21:26:05.064Z,4.13
2023-03-28T21:27:05.144Z,3.96
2023-03-28T21:28:05.246Z,4.01
2023-03-28T21:29:05.247Z,3.92
2023-03-28T21:30:05.291Z,4.24
2023-03-28T21:31:05.376Z,4.05
2023-03-28T21:32:05.412Z,4.42
2023-03-28T21:33:05.485Z,4.66
2023-03-28T21:34:05.414Z,5.06
2023-03-28T21:35:05.451Z,4.23
2023-03-28T21:36:05.494Z,4.54
2023-03-28T21:37:05.469Z,4.63
2023-03-28T21:38:05.475Z,4.51
2023-03-28T21:39:05.512Z,4.46
2023-03-28T21:40:05.614Z,4.18
2023-03-28T21:41:05.630Z,4.05
2023-03-28T21:42:05.714Z,4.07
2023-03-28T21:43:05.735Z,4.02
2023-03-28T21:44:05.816Z,4.16
2023-03-28T21:45:05.859Z,4.19
2023-03-28T21:46:05.911Z,3.86
2023-03-28T21:47:05.958Z,4.11
2023-03-28T21:48:06.040Z,4.05
2023-03-28T21:49:05.990Z,3.69
2023-03-28T21:50:06.007Z,3.76
2023-03-28T21:51:06.271Z,3.91
2023-03-28T21:52:06.139Z,4.02
2023-03-28T21:53:06.135Z,3.43
2023-03-28T21:54:06.237Z,4.00
2023-03-28T21:55:06.168Z,4.52
2023-03-28T21:56:06.190Z,4.04
2023-03-28T21:57:06.307Z,4.02
2023-03-28T21:58:06.275Z,4.19
2023-03-28T21:59:06.199Z,4.33
2023-03-28T22:00:06.310Z,4.30
2023-03-28T22:01:06.618Z,4.79
2023-03-28T22:02:06.417Z,4.20
2023-03-28T22:03:06.473Z,4.81
2023-03-28T22:04:06.444Z,4.61
2023-03-28T22:05:13.048Z,5.02
2023-03-28T22:06:07.420Z,5.10
2023-03-28T22:07:06.533Z,4.72
2023-03-28T22:08:06.421Z,4.06
2023-03-28T22:09:06.399Z,4.64
2023-03-28T22:10:06.384Z,4.76
2023-03-28T22:11:06.373Z,4.98
2023-03-28T22:12:06.384Z,5.04
2023-03-28T22:13:06.487Z,5.32
2023-03-28T22:14:06.414Z,5.34
2023-03-28T22:15:06.448Z,5.02
2023-03-28T22:16:06.446Z,5.22
2023-03-28T22:17:06.344Z,5.62
2023-03-28T22:18:06.408Z,5.07
2023-03-28T22:19:06.360Z,5.39
2023-03-28T22:20:06.378Z,4.92
2023-03-28T22:21:06.382Z,5.29
2023-03-28T22:22:06.418Z,4.81
2023-03-28T22:23:06.381Z,5.63
2023-03-28T22:24:06.357Z,5.17
2023-03-28T22:25:06.364Z,5.27
2023-03-28T22:26:06.379Z,5.00
2023-03-28T22:27:06.459Z,5.23
2023-03-28T22:28:06.510Z,5.24
2023-03-28T22:29:06.584Z,5.24
2023-03-28T22:30:07.978Z,5.16
2023-03-28T22:31:06.688Z,5.42
2023-03-28T22:32:06.650Z,12.65
2023-03-28T22:33:06.717Z,5.60
2023-03-28T22:34:06.621Z,6.16
2023-03-28T22:35:06.634Z,5.51
2023-03-28T22:36:06.657Z,5.78
2023-03-28T22:37:06.612Z,5.67
2023-03-28T22:38:06.637Z,5.07
2023-03-28T22:39:06.595Z,5.29
2023-03-28T22:40:06.581Z,5.08
2023-03-28T22:41:06.556Z,5.67
2023-03-28T22:42:06.587Z,5.35
2023-03-28T22:43:06.632Z,5.59
2023-03-28T22:44:06.537Z,5.19
2023-03-28T22:45:06.543Z,5.69
2023-03-28T22:46:06.557Z,5.25
2023-03-28T22:47:06.528Z,5.72
2023-03-28T22:48:06.574Z,5.52
2023-03-28T22:49:06.507Z,5.92
2023-03-28T22:50:06.538Z,5.61
2023-03-28T22:51:06.572Z,5.09
2023-03-28T22:52:06.480Z,5.75
2023-03-28T22:53:06.558Z,5.62
2023-03-28T22:54:06.502Z,5.41
2023-03-28T22:55:06.475Z,6.00
2023-03-28T22:56:06.484Z,5.29
2023-03-28T22:57:06.486Z,4.74
2023-03-28T22:58:06.516Z,5.11
2023-03-28T22:59:06.480Z,4.79
2023-03-28T23:00:06.470Z,4.69
2023-03-28T23:01:06.480Z,7.02
2023-03-28T23:02:06.463Z,4.89
2023-03-28T23:03:06.486Z,5.48
2023-03-28T23:04:06.463Z,5.52
2023-03-28T23:05:06.495Z,5.43
2023-03-28T23:06:06.425Z,5.81
2023-03-28T23:07:06.431Z,4.93
2023-03-28T23:08:06.439Z,5.39
2023-03-28T23:09:06.404Z,4.77
2023-03-28T23:10:06.384Z,4.80
2023-03-28T23:11:06.403Z,4.77
2023-03-28T23:12:06.415Z,4.85
2023-03-28T23:13:06.417Z,5.76
2023-03-28T23:14:06.403Z,5.63
2023-03-28T23:15:06.391Z,5.37
2023-03-28T23:16:06.402Z,5.18
2023-03-28T23:17:06.338Z,5.18
2023-03-28T23:18:06.379Z,5.36
2023-03-28T23:19:06.362Z,5.90
2023-03-28T23:20:06.329Z,4.99
2023-03-28T23:21:06.330Z,4.97
2023-03-28T23:22:06.330Z,5.62
2023-03-28T23:23:06.326Z,5.72
2023-03-28T23:24:06.328Z,4.88
2023-03-28T23:25:06.293Z,4.98
2023-03-28T23:26:06.315Z,5.64
2023-03-28T23:27:06.298Z,5.32
2023-03-28T23:28:06.298Z,4.75
2023-03-28T23:29:06.336Z,4.69
2023-03-28T23:30:06.379Z,4.53
2023-03-28T23:31:06.396Z,4.62
2023-03-28T23:32:06.384Z,4.87
2023-03-28T23:33:06.508Z,5.01
2023-03-28T23:34:06.480Z,4.86
2023-03-28T23:35:06.526Z,4.38
2023-03-28T23:36:06.560Z,4.09
2023-03-28T23:37:06.561Z,4.63
2023-03-28T23:38:06.583Z,4.23
2023-03-28T23:39:06.652Z,4.42
2023-03-28T23:40:06.559Z,4.52
2023-03-28T23:41:06.588Z,3.92
2023-03-28T23:42:06.663Z,4.29
2023-03-28T23:43:06.672Z,4.24
2023-03-28T23:44:06.702Z,4.64
2023-03-28T23:45:06.725Z,4.60
2023-03-28T23:46:06.859Z,4.92
2023-03-28T23:47:06.811Z,4.70
2023-03-28T23:48:06.933Z,4.84
2023-03-28T23:49:06.876Z,5.34
2023-03-28T23:50:06.874Z,5.38
2023-03-28T23:51:06.891Z,5.25
2023-03-28T23:52:06.883Z,5.22
2023-03-28T23:53:06.898Z,6.08
2023-03-28T23:54:06.901Z,5.31
2023-03-28T23:55:06.913Z,4.79
2023-03-28T23:56:06.864Z,5.30
2023-03-28T23:57:06.939Z,5.43
2023-03-28T23:58:06.979Z,5.72
2023-03-28T23:59:07.001Z,5.36
